Tiempo atmosférico en la estación meteorológica de Pedrosillo de Los Aires, Salamanca (865 m.)



Fecha
DESCASC
Temp. máxima en grados centígrados (hora)
DESCASC
Temp. mínima en grados centígrados (hora)
DESCASC
Temp. media en grados centígrados
DESCASC
Racha de viento máxima en m/sg (hora)
DESCASC
Velocidad máxima media en intervalos de 10 minutos(hora)
DESCASC
Precipitaciones diarias en mm
DESCASC
Precipitaciones de 00:00 a 06:00 en mm
DESCASC
Precipitaciones de 06:00 a 12:00 en mm
DESCASC
Precipitaciones de 12:00 a 18:00 en mm
DESCASC
Precipitaciones de 18:00 a 24:00 en mm
DESCASC
19-09-2019 26.3 (15:20) 9.4 (08:10) 17.8 8.61 (19:10) 5.56 (19:10) 0 0 0 0 0
18-09-2019 25 (17:10) 9 (08:10) 17 6.39 (18:10) 4.17 (18:40) 0 0 0 0 0
17-09-2019 24.3 (14:40) 11.5 (00:00) 17.9 10 (21:40) 6.94 (21:50) 4.4 0 0 0.8 3.6
16-09-2019 21 (13:20) 10.8 (00:00) 15.9 6.67 (13:50) 4.17 (13:50) 0.6 0 0 0.6 0
15-09-2019 21.9 (14:30) 13.8 (00:00) 17.8 7.22 (12:30) 5 (12:30) 12 2.4 7.8 1.8 0
14-09-2019 23.5 (13:20) 12.4 (00:00) 17.9 11.67 (12:10) 7.22 (12:10) 0 0 0 0 0
13-09-2019 25.3 (13:30) 9.6 (00:00) 17.4 13.33 (16:00) 8.61 (18:20) 0 0 0 0 0
12-09-2019 27.1 (17:50) 7.7 (00:00) 17.4 11.39 (15:40) 7.5 (14:50) 0 0 0 0 0
11-09-2019 21.6 (18:00) 9.3 (00:00) 15.5 14.72 (11:20) 10 (11:10) 0 0 0 0 0
10-09-2019 19.7 (17:50) 9.7 (06:40) 14.7 13.33 (14:20) 8.06 (11:10) 0 0 0 0 0
09-09-2019 26.7 (15:50) 6.9 (05:50) 16.8 12.22 (15:10) 6.94 (16:40) 0 0 0 0 0
08-09-2019 26.8 (18:30) 6.4 (00:00) 16.6 6.67 (14:50) 4.72 (09:50) 0 0 0 0 0
07-09-2019 24.7 (16:20) 5.8 (00:00) 15.3 10.28 (14:10) 7.22 (00:10) 0 0 0 0 0
06-09-2019 22.8 (18:10) 7.2 (00:00) 15 12.78 (01:10) 7.22 (23:59) 0 0 0 0 0
05-09-2019 23.5 (17:40) 10.7 (00:00) 17.1 15.83 (13:10) 10.28 (10:20) 0 0 0 0 0
04-09-2019 30.7 (16:30) 9.3 (00:00) 20 9.72 (19:10) 5.83 (23:10) 0 0 0 0 0
03-09-2019 29.6 (17:10) 10.5 (00:00) 20.1 10.28 (00:10) 6.39 (00:10) 0 0 0 0 0
02-09-2019 28.1 (17:40) 12.2 (00:00) 20.2 12.5 (01:10) 8.33 (00:30) 0 0 0 0 0
01-09-2019 27.8 (14:40) 12.5 (00:00) 20.1 11.11 (23:59) 7.22 (23:50) 0 0 0 0 0
31-08-2019 32.4 (17:20) 13.2 (00:00) 22.8 9.17 (16:20) 5.83 (16:20) 0 0 0 0 0
30-08-2019 32.7 (15:20) 12.6 (00:00) 22.7 11.11 (16:00) 7.78 (16:00) 0 0 0 0 0
29-08-2019 31.3 (17:40) 13 (00:00) 22.1 11.39 (13:10) 6.11 (13:30) 0 0 0 0 0
28-08-2019 29.8 (17:50) 12.3 (00:00) 21 7.5 (16:40) 4.72 (14:00) 0 0 0 0 0
27-08-2019 26.8 (17:10) 11.6 (00:00) 19.2 7.22 (17:10) 4.17 (17:30) 0 0 0 0 0
26-08-2019 24.6 (17:00) 13 (00:00) 18.8 14.44 (18:20) 10 (18:20) 11.8 10 1.8 0 0
25-08-2019 31.6 (15:10) 16.2 (00:00) 23.9 11.39 (16:20) 6.39 (23:40) 8.2 0 0 0.8 7.4
24-08-2019 32.7 (17:20) 12.5 (00:00) 22.6 8.06 (15:10) 3.89 (11:40) 0 0 0 0 0
23-08-2019 32.5 (16:30) 9.5 (00:00) 21 6.94 (18:20) 4.17 (14:20) 0 0 0 0 0
22-08-2019 30.1 (17:50) 10.7 (00:00) 20.4 9.72 (15:40) 6.39 (15:30) 0 0 0 0 0
21-08-2019 29.2 (17:20) 11.9 (00:00) 20.6 8.89 (18:10) 5.83 (18:10) 0 0 0 0 0

Gráficas

Temp. máximas Temp. mínimas Temp. medias Precipitaciones Rachas de viento máximas Velocidades máximas media en intervalos de 10 minutos

Datos horarios

Fecha y hora oficial Temperatura (ºC) Velocidad del viento (km/h) Dirección del viento Racha (km/h) Dirección de racha Precipitación (mm) Presión (hPa) Tendencia (hPa) Humedad (%)
2019-09-19 23:00:00 16.9 6 Oeste 12 Oeste 0 -- -- 71
2019-09-19 22:00:00 19.1 5 Noroeste 14 Sur 0 -- -- 65
2019-09-19 21:00:00 19.4 4 Sudoeste 13 Sudoeste 0 -- -- 65
2019-09-19 20:00:00 21.4 7 Este 31 Sudeste 0 -- -- 50
2019-09-19 19:00:00 23.3 16 Sudeste 27 Sudeste 0 -- -- 45
2019-09-19 18:00:00 24.9 5 Este 10 Nordeste 0 -- -- 43
2019-09-19 17:00:00 25.8 7 Este 20 Norte 0 -- -- 40
2019-09-19 16:00:00 25.7 3 Sudeste 18 Este 0 -- -- 41
2019-09-19 15:00:00 26 9 Este 17 Nordeste 0 -- -- 43
2019-09-19 14:00:00 24.8 6 Nordeste 19 Nordeste 0 -- -- 48
2019-09-19 13:00:00 23 12 Nordeste 18 Nordeste 0 -- -- 57
2019-09-19 12:00:00 20.3 6 Nordeste 12 Nordeste 0 -- -- 65
2019-09-19 11:00:00 16.6 3 Este 5 Este 0 -- -- 78
2019-09-19 10:00:00 12.9 0 Calma 6 Sudoeste 0 -- -- 97
2019-09-19 09:00:00 10.1 4 Sudoeste 9 Oeste 0 -- -- 96
2019-09-19 08:00:00 9.5 0 Calma 5 Norte 0 -- -- 96
2019-09-19 07:00:00 10.4 0 Calma 4 Oeste 0 -- -- 95
2019-09-19 06:00:00 10.8 4 Oeste 9 Oeste 0 -- -- 95
2019-09-19 05:00:00 11 3 Oeste 6 Oeste 0 -- -- 94
2019-09-19 04:00:00 11.6 2 Noroeste 6 Sudoeste 0 -- -- 94
2019-09-19 03:00:00 12.1 5 Oeste 6 Oeste 0 -- -- 91
2019-09-19 02:00:00 13.2 3 Oeste 6 Noroeste 0 -- -- 89
2019-09-19 01:00:00 13.5 6 Oeste 7 Oeste 0 -- -- 88
2019-09-19 00:00:00 14.5 3 Oeste 9 Norte 0 -- -- 85
2019-09-18 23:00:00 15.8 6 Noroeste 10 Oeste 0 -- -- 78
2019-09-18 22:00:00 18.1 0 Calma 10 Nordeste 0 -- -- 69
2019-09-18 21:00:00 19.7 8 Nordeste 12 Nordeste 0 -- -- 61
2019-09-18 20:00:00 22.1 10 Nordeste 16 Nordeste 0 -- -- 54
2019-09-18 19:00:00 23.9 15 Nordeste 23 Nordeste 0 -- -- 48
2019-09-18 18:00:00 24.7 14 Nordeste 23 Nordeste 0 -- -- 44
2019-09-18 17:00:00 24.8 13 Nordeste 22 Nordeste 0 -- -- 43
2019-09-18 16:00:00 24.6 12 Nordeste 22 Este 0 -- -- 45
2019-09-18 15:00:00 23.8 14 Nordeste 23 Nordeste 0 -- -- 52
2019-09-18 14:00:00 22.6 13 Nordeste 20 Este 0 -- -- 59
2019-09-18 13:00:00 20.5 10 Nordeste 15 Nordeste 0 -- -- 64
2019-09-18 12:00:00 18.1 6 Nordeste 9 Nordeste 0 -- -- 72
2019-09-18 11:00:00 15.3 4 Nordeste 8 Nordeste 0 -- -- 89
2019-09-18 10:00:00 12.3 0 Calma 8 Sudoeste 0 -- -- 99
2019-09-18 09:00:00 9.8 3 Oeste 9 Oeste 0 -- -- 99
2019-09-18 08:00:00 9.3 4 Noroeste 7 Oeste 0 -- -- 97
2019-09-18 07:00:00 10.3 4 Oeste 5 Oeste 0 -- -- 97
2019-09-18 06:00:00 10.8 5 Este 9 Norte 0 -- -- 97
2019-09-18 05:00:00 11.1 5 Oeste 12 Sudoeste 0 -- -- 97
2019-09-18 04:00:00 11.8 7 Sudoeste 10 Sudoeste 0 -- -- 96
2019-09-18 03:00:00 12.6 3 Oeste 7 Sudoeste 0 -- -- 94
2019-09-18 02:00:00 12.9 5 Nordeste 11 Norte 0 -- -- 93
2019-09-18 01:00:00 13.6 6 Oeste 8 Norte 0 -- -- 90
2019-09-18 00:00:00 14.3 4 Nordeste 15 Sudeste 0 -- -- 83
2019-09-17 23:00:00 14.8 3 Sur 30 Sudeste 0 -- -- 86
2019-09-17 22:00:00 15 22 Sudeste 36 Sudeste 1.6 -- -- 88
2019-09-17 21:00:00 14.7 18 Sur 29 Sudeste 1 -- -- 86
2019-09-15 18:00:00 19.1 13 Nordeste 18 Nordeste 0 -- -- 71
2019-09-15 17:00:00 18.5 6 Este 25 Sudeste 1.6 -- -- 80
2019-09-15 16:00:00 21.2 5 Sudeste 12 Nordeste 0.2 -- -- 70
2019-09-15 15:00:00 21.8 6 Este 18 Nordeste 0 -- -- 60
2019-09-15 14:00:00 20.9 15 Nordeste 22 Nordeste 0 -- -- 69
2019-09-15 13:00:00 19.2 16 Nordeste 26 Nordeste 0 -- -- 78
2019-09-15 12:00:00 17.8 12 Nordeste 18 Nordeste 0 -- -- 86
2019-09-15 11:00:00 16.5 10 Nordeste 15 Nordeste 0 -- -- 90
2019-09-15 10:00:00 15.3 4 Norte 7 Nordeste 0 -- -- 95
2019-09-15 09:00:00 14 10 Nordeste 20 Nordeste 0.2 -- -- 97
2019-09-15 08:00:00 13.9 2 Norte 9 Noroeste 4.4 -- -- 96
2019-09-15 07:00:00 14 5 Norte 12 Este 3.2 -- -- 96
2019-09-15 06:00:00 13.8 5 Norte 10 Oeste 2.4 -- -- 94
2019-09-15 05:00:00 14.1 2 Sudoeste 8 Nordeste 0 -- -- 90
2019-09-15 04:00:00 14.4 3 Nordeste 14 Nordeste 0 -- -- 90
2019-09-15 03:00:00 14.7 9 Nordeste 18 Nordeste 0 -- -- 88
2019-09-15 02:00:00 15.3 4 Norte 9 Nordeste 0 -- -- 83
2019-09-15 01:00:00 16.8 2 Nordeste 22 Sudeste 0 -- -- 71
2019-09-15 00:00:00 17.4 7 Sudeste 19 Sudeste 0 -- -- 65
2019-09-14 23:00:00 17.4 7 Nordeste 20 Sudeste 0 -- -- 64
2019-09-14 22:00:00 18.2 16 Sudeste 31 Este 0 -- -- 59
2019-09-14 21:00:00 18.5 14 Este 31 Sudeste 0 -- -- 59
2019-09-14 20:00:00 20.3 18 Sudeste 27 Este 0 -- -- 52
2019-09-14 19:00:00 20.7 16 Sudeste 33 Sudeste 0 -- -- 52
2019-09-14 18:00:00 20.7 21 Sudeste 37 Sudeste 0 -- -- 51
2019-09-14 17:00:00 20.8 17 Este 28 Este 0 -- -- 51
2019-09-14 16:00:00 21.2 15 Sudeste 30 Este 0 -- -- 50
2019-09-14 15:00:00 22.1 20 Sudeste 35 Este 0 -- -- 48
2019-09-14 14:00:00 22.1 22 Este 36 Nordeste 0 -- -- 46
2019-09-14 13:00:00 23.4 19 Nordeste 42 Norte 0 -- -- 44
2019-09-14 12:00:00 21.7 22 Nordeste 36 Nordeste 0 -- -- 51
2019-09-14 11:00:00 18.4 18 Nordeste 26 Nordeste 0 -- -- 70
2019-09-14 10:00:00 15 17 Nordeste 22 Nordeste 0 -- -- 82
2019-09-14 09:00:00 13.9 11 Nordeste 18 Nordeste 0 -- -- 87
2019-09-14 08:00:00 12.6 5 Nordeste 10 Nordeste 0 -- -- 91
2019-09-14 07:00:00 12.7 8 Nordeste 19 Nordeste 0 -- -- 89
2019-09-14 06:00:00 12.6 14 Nordeste 21 Nordeste 0 -- -- 89
2019-09-14 05:00:00 12.7 13 Nordeste 20 Nordeste 0 -- -- 88
2019-09-14 04:00:00 13.2 10 Nordeste 17 Nordeste 0 -- -- 86
2019-09-14 03:00:00 13.5 10 Nordeste 20 Norte 0 -- -- 85
2019-09-14 02:00:00 13.8 10 Nordeste 19 Nordeste 0 -- -- 85
2019-09-14 01:00:00 13.9 8 Norte 19 Nordeste 0 -- -- 82
2019-09-14 00:00:00 15.6 16 Nordeste 23 Nordeste 0 -- -- 73
2019-09-13 23:00:00 15.4 11 Nordeste 14 Nordeste 0 -- -- 73
2019-09-13 22:00:00 16.7 5 Nordeste 23 Este 0 -- -- 65
2019-09-13 21:00:00 17.6 15 Este 28 Sudeste 0 -- -- 61
2019-09-13 20:00:00 18.4 17 Nordeste 36 Este 0 -- -- 60
2019-09-13 19:00:00 19.5 27 Nordeste 46 Nordeste 0 -- -- 53
2019-09-13 18:00:00 22.4 26 Nordeste 40 Nordeste 0 -- -- 40
2019-09-13 17:00:00 22.4 17 Este 44 Sudeste 0 -- -- 42
2019-09-13 16:00:00 23.2 31 Sudeste 48 Sudeste 0 -- -- 38
2019-09-13 15:00:00 24.9 26 Nordeste 43 Nordeste 0 -- -- 32
2019-09-13 14:00:00 24.4 26 Nordeste 41 Nordeste 0 -- -- 36
2019-09-13 13:00:00 22.3 27 Nordeste 36 Nordeste 0 -- -- 43
2019-09-13 12:00:00 20.5 26 Nordeste 33 Nordeste 0 -- -- 50
2019-09-13 11:00:00 18.8 13 Nordeste 20 Nordeste 0 -- -- 57
2019-09-13 10:00:00 15.3 12 Nordeste 18 Nordeste 0 -- -- 68
2019-09-13 09:00:00 12.1 4 Norte 15 Nordeste 0 -- -- 82
2019-09-13 08:00:00 10 8 Nordeste 12 Nordeste 0 -- -- 86
2019-09-13 07:00:00 9.9 2 Noroeste 6 Oeste 0 -- -- 86
2019-09-13 06:00:00 10 2 Oeste 9 Oeste 0 -- -- 85
2019-09-13 05:00:00 10.2 3 Norte 6 Norte 0 -- -- 82
2019-09-13 04:00:00 11.3 4 Noroeste 12 Oeste 0 -- -- 79
2019-09-13 03:00:00 12.1 4 Norte 9 Oeste 0 -- -- 74
2019-09-13 02:00:00 12.6 7 Oeste 9 Oeste 0 -- -- 70
2019-09-13 01:00:00 14.5 2 Noroeste 7 Oeste 0 -- -- 66
2019-09-13 00:00:00 15.5 5 Oeste 10 Norte 0 -- -- 63
2019-09-12 23:00:00 18.4 4 Este 12 Noroeste 0 -- -- 55
2019-09-12 22:00:00 20.8 0 Calma 18 Sudeste 0 -- -- 49
2019-09-12 21:00:00 22.9 12 Sudeste 22 Nordeste 0 -- -- 43
2019-09-12 20:00:00 25.3 15 Nordeste 29 Nordeste 0 -- -- 36
2019-09-12 19:00:00 26.8 22 Nordeste 39 Nordeste 0 -- -- 34
2019-09-12 18:00:00 26.4 25 Nordeste 37 Nordeste 0 -- -- 35
2019-09-12 17:00:00 26.4 22 Nordeste 40 Nordeste 0 -- -- 35
2019-09-12 16:00:00 25.4 24 Nordeste 41 Nordeste 0 -- -- 37
2019-09-12 15:00:00 24.2 25 Nordeste 41 Norte 0 -- -- 40
2019-09-12 14:00:00 22.4 26 Nordeste 38 Nordeste 0 -- -- 45
2019-09-12 13:00:00 20.1 23 Nordeste 31 Nordeste 0 -- -- 50
2019-09-12 12:00:00 17.7 20 Nordeste 27 Nordeste 0 -- -- 59
2019-09-12 11:00:00 14.8 13 Nordeste 25 Nordeste 0 -- -- 70
2019-09-12 10:00:00 11.9 15 Nordeste 21 Nordeste 0 -- -- 82
2019-09-12 09:00:00 8.9 9 Este 13 Nordeste 0 -- -- 91
2019-09-12 08:00:00 7.8 5 Nordeste 10 Nordeste 0 -- -- 93
2019-09-12 07:00:00 7.9 6 Norte 12 Nordeste 0 -- -- 92
2019-09-12 06:00:00 8.5 6 Nordeste 8 Nordeste 0 -- -- 87
2019-09-12 05:00:00 9.8 2 Nordeste 8 Nordeste 0 -- -- 83
2019-09-12 04:00:00 10.2 6 Norte 12 Norte 0 -- -- 81
2019-09-12 03:00:00 11.3 6 Nordeste 15 Nordeste 0 -- -- 76
2019-09-12 02:00:00 12.6 14 Nordeste 26 Nordeste 0 -- -- 72
2019-09-12 01:00:00 13.2 19 Nordeste 26 Nordeste 0 -- -- 69
2019-09-12 00:00:00 14.1 8 Nordeste 17 Norte 0 -- -- 64
2019-09-11 23:00:00 15.4 12 Norte 19 Norte 0 -- -- 60
2019-09-11 22:00:00 16.5 4 Norte 21 Nordeste 0 -- -- 56
2019-09-11 21:00:00 17.9 15 Nordeste 30 Nordeste 0 -- -- 51
2019-09-11 20:00:00 20.1 18 Nordeste 36 Nordeste 0 -- -- 45
2019-09-11 19:00:00 21.1 27 Nordeste 39 Nordeste 0 -- -- 41
2019-09-11 18:00:00 21.6 27 Nordeste 42 Norte 0 -- -- 41
2019-09-11 17:00:00 21.4 29 Nordeste 45 Nordeste 0 -- -- 41
2019-09-11 16:00:00 21.2 26 Nordeste 49 Nordeste 0 -- -- 42
2019-09-11 15:00:00 20.3 27 Nordeste 48 Nordeste 0 -- -- 44
2019-09-11 14:00:00 19.3 32 Nordeste 50 Nordeste 0 -- -- 46
2019-09-11 13:00:00 18 33 Nordeste 53 Nordeste 0 -- -- 49
2019-09-11 12:00:00 16.4 32 Nordeste 53 Nordeste 0 -- -- 53
2019-09-11 11:00:00 15.3 32 Nordeste 50 Nordeste 0 -- -- 56
2019-09-11 10:00:00 13.1 18 Nordeste 31 Nordeste 0 -- -- 65
2019-09-11 09:00:00 10.6 15 Nordeste 22 Nordeste 0 -- -- 76
2019-09-11 08:00:00 9.3 12 Norte 18 Norte 0 -- -- 81
2019-09-11 07:00:00 10 15 Nordeste 20 Nordeste 0 -- -- 79
2019-09-11 06:00:00 10.3 12 Nordeste 22 Nordeste 0 -- -- 79
2019-09-11 05:00:00 10.4 11 Nordeste 26 Nordeste 0 -- -- 77
2019-09-11 04:00:00 11.4 19 Nordeste 33 Nordeste 0 -- -- 73
2019-09-11 03:00:00 11.7 17 Nordeste 28 Nordeste 0 -- -- 73
2019-09-11 02:00:00 11.9 11 Nordeste 24 Norte 0 -- -- 70
2019-09-11 01:00:00 13 18 Nordeste 37 Nordeste 0 -- -- 60
2019-09-11 00:00:00 13.9 22 Norte 40 Nordeste 0 -- -- 55
2019-09-10 23:00:00 15.1 26 Norte 40 Nordeste 0 -- -- 51
2019-09-10 22:00:00 15.5 22 Norte 36 Norte 0 -- -- 47
2019-09-10 21:00:00 16.3 24 Norte 37 Norte 0 -- -- 43
2019-09-10 20:00:00 17.6 27 Norte 44 Norte 0 -- -- 39
2019-09-10 19:00:00 18.9 24 Norte 37 Norte 0 -- -- 35
2019-09-10 18:00:00 19.6 24 Norte 45 Norte 0 -- -- 33
2019-09-10 17:00:00 19.3 27 Norte 43 Norte 0 -- -- 33
2019-09-10 16:00:00 18.9 22 Norte 43 Norte 0 -- -- 33
2019-09-10 15:00:00 18 22 Norte 48 Nordeste 0 -- -- 35
2019-09-10 14:00:00 16.9 26 Norte 42 Nordeste 0 -- -- 38
2019-09-10 13:00:00 15.8 29 Nordeste 44 Nordeste 0 -- -- 41
2019-09-10 12:00:00 14.8 27 Nordeste 42 Nordeste 0 -- -- 45
2019-09-10 11:00:00 13.6 28 Norte 39 Norte 0 -- -- 49
2019-09-10 10:00:00 12 22 Nordeste 36 Norte 0 -- -- 55
2019-09-10 09:00:00 10.6 21 Nordeste 33 Norte 0 -- -- 62
2019-09-10 08:00:00 10.6 16 Norte 30 Nordeste 0 -- -- 65
2019-09-10 07:00:00 10.3 10 Nordeste 15 Nordeste 0 -- -- 82
2019-09-10 06:00:00 10.3 3 Norte 8 Noroeste 0 -- -- 77
2019-09-10 05:00:00 11 7 Norte 16 Norte 0 -- -- 74
2019-09-10 04:00:00 12 3 Noroeste 20 Noroeste 0 -- -- 71
2019-09-10 03:00:00 13.7 13 Noroeste 22 Noroeste 0 -- -- 65
2019-09-10 02:00:00 14.4 7 Noroeste 15 Noroeste 0 -- -- 61
2019-09-10 01:00:00 15.6 6 Noroeste 19 Oeste 0 -- -- 55
2019-09-10 00:00:00 16.9 7 Oeste 30 Noroeste 0 -- -- 51
2019-09-09 23:00:00 18.3 14 Noroeste 30 Noroeste 0 -- -- 45
2019-09-09 22:00:00 19.1 8 Noroeste 24 Noroeste 0 -- -- 31
2019-09-09 21:00:00 20.9 16 Oeste 35 Noroeste 0 -- -- 31
2019-09-09 20:00:00 22.7 18 Noroeste 40 Oeste 0 -- -- 29
2019-09-09 19:00:00 24.1 17 Oeste 33 Oeste 0 -- -- 25
2019-09-09 18:00:00 25.2 19 Noroeste 38 Oeste 0 -- -- 21
2019-09-09 17:00:00 25.5 21 Oeste 40 Oeste 0 -- -- 22
2019-09-09 16:00:00 26.3 21 Oeste 44 Oeste 0 -- -- 23
2019-09-09 15:00:00 26.2 22 Oeste 35 Oeste 0 -- -- 21
2019-09-09 14:00:00 26.1 17 Noroeste 30 Oeste 0 -- -- 24
2019-09-09 13:00:00 24.8 15 Oeste 28 Sur 0 -- -- 25
2019-09-09 12:00:00 23.4 12 Sudoeste 25 Sudoeste 0 -- -- 33
2019-09-09 11:00:00 21.1 5 Sudoeste 9 Sudoeste 0 -- -- 41
2019-09-09 10:00:00 16.2 3 Sur 11 Sudoeste 0 -- -- 53
2019-09-09 09:00:00 10.5 8 Sudoeste 18 Oeste 0 -- -- 67
2019-09-09 08:00:00 7.6 9 Noroeste 12 Noroeste 0 -- -- 76
2019-09-09 07:00:00 7.8 6 Oeste 12 Oeste 0 -- -- 76
2019-09-09 06:00:00 7.1 7 Sudoeste 9 Oeste 0 -- -- 77
2019-09-09 05:00:00 7.7 7 Oeste 10 Oeste 0 -- -- 76
2019-09-09 04:00:00 8 7 Sudoeste 10 Oeste 0 -- -- 72
2019-09-09 03:00:00 9.3 6 Noroeste 9 Oeste 0 -- -- 71
2019-09-09 02:00:00 10.2 6 Noroeste 9 Noroeste 0 -- -- 67
2019-09-09 01:00:00 11.2 7 Oeste 9 Sudoeste 0 -- -- 65
2019-09-09 00:00:00 13 8 Sudoeste 10 Oeste 0 -- -- 55
2019-09-08 23:00:00 15 6 Oeste 18 Oeste 0 -- -- 50
2019-09-08 22:00:00 18.1 9 Oeste 12 Nordeste 0 -- -- 41
2019-09-08 21:00:00 21 10 Nordeste 17 Nordeste 0 -- -- 38
2019-09-08 20:00:00 24.2 13 Nordeste 20 Nordeste 0 -- -- 33
2019-09-08 19:00:00 26.3 7 Norte 21 Nordeste 0 -- -- 24
2019-09-08 18:00:00 26.7 8 Noroeste 22 Norte 0 -- -- 27
2019-09-08 17:00:00 26.4 8 Norte 23 Norte 0 -- -- 29
2019-09-08 16:00:00 25.9 8 Oeste 23 Norte 0 -- -- 31
2019-09-08 15:00:00 23.8 14 Nordeste 24 Nordeste 0 -- -- 42
2019-09-08 14:00:00 21.9 14 Nordeste 21 Norte 0 -- -- 47
2019-09-08 13:00:00 19.6 14 Nordeste 21 Nordeste 0 -- -- 52
2019-09-08 12:00:00 17.2 9 Nordeste 17 Nordeste 0 -- -- 57
2019-09-08 11:00:00 14.3 10 Nordeste 21 Nordeste 0 -- -- 66
2019-09-08 10:00:00 11.8 14 Nordeste 22 Nordeste 0 -- -- 76
2019-09-08 09:00:00 9.4 4 Nordeste 6 Nordeste 0 -- -- 85
2019-09-08 08:00:00 6.6 5 Norte 8 Noroeste 0 -- -- 90
2019-09-08 07:00:00 7.8 4 Norte 6 Norte 0 -- -- 85
2019-09-08 06:00:00 9.1 0 Calma 12 Nordeste 0 -- -- 82
2019-09-08 05:00:00 9.9 8 Nordeste 10 Norte 0 -- -- 77
2019-09-08 04:00:00 11.1 9 Nordeste 20 Nordeste 0 -- -- 73
2019-09-08 03:00:00 11.9 14 Nordeste 20 Nordeste 0 -- -- 65
2019-09-08 02:00:00 12.4 11 Nordeste 21 Nordeste 0 -- -- 60
2019-09-08 01:00:00 14.5 14 Nordeste 21 Nordeste 0 -- -- 46
2019-09-08 00:00:00 14.6 13 Nordeste 18 Nordeste 0 -- -- 46
2019-09-07 23:00:00 15.6 9 Nordeste 12 Nordeste 0 -- -- 46
2019-09-07 22:00:00 17.3 4 Nordeste 12 Nordeste 0 -- -- 37
2019-09-07 21:00:00 20.1 11 Nordeste 21 Nordeste 0 -- -- 31
2019-09-07 20:00:00 22.8 17 Nordeste 23 Nordeste 0 -- -- 29
2019-09-07 19:00:00 23.9 18 Nordeste 30 Nordeste 0 -- -- 29
2019-09-07 18:00:00 24.5 21 Nordeste 28 Nordeste 0 -- -- 28
2019-09-07 17:00:00 24.6 19 Nordeste 34 Nordeste 0 -- -- 30
2019-09-07 16:00:00 24.6 21 Nordeste 33 Nordeste 0 -- -- 33
2019-09-07 15:00:00 23.2 21 Nordeste 37 Norte 0 -- -- 37
2019-09-07 14:00:00 20.4 21 Nordeste 32 Nordeste 0 -- -- 41
2019-09-07 13:00:00 18.3 22 Nordeste 32 Nordeste 0 -- -- 44
2019-09-07 12:00:00 15.4 19 Nordeste 28 Nordeste 0 -- -- 50
2019-09-07 11:00:00 12.8 18 Nordeste 26 Norte 0 -- -- 61
2019-09-07 10:00:00 10.2 15 Nordeste 21 Nordeste 0 -- -- 73
2019-09-07 09:00:00 7.9 8 Nordeste 14 Nordeste 0 -- -- 85
2019-09-07 08:00:00 5.8 5 Nordeste 14 Nordeste 0 -- -- 90
2019-09-07 07:00:00 6.4 8 Nordeste 16 Nordeste 0 -- -- 88
2019-09-07 06:00:00 7.1 10 Nordeste 20 Nordeste 0 -- -- 84
2019-09-07 05:00:00 7.9 14 Nordeste 19 Nordeste 0 -- -- 80
2019-09-07 04:00:00 8.9 9 Nordeste 26 Nordeste 0 -- -- 75
2019-09-07 03:00:00 9.8 15 Nordeste 28 Nordeste 0 -- -- 71
2019-09-07 02:00:00 11.1 21 Nordeste 36 Nordeste 0 -- -- 64
2019-09-07 01:00:00 12.2 25 Nordeste 37 Nordeste 0 -- -- 59
2019-09-07 00:00:00 13.8 26 Nordeste 39 Nordeste 0 -- -- 52
2019-09-06 23:00:00 15.1 23 Nordeste 31 Nordeste 0 -- -- 48
2019-09-06 22:00:00 16.7 22 Nordeste 31 Nordeste 0 -- -- 44
2019-09-06 21:00:00 18.9 21 Nordeste 30 Nordeste 0 -- -- 40
2019-09-06 20:00:00 21.6 19 Nordeste 38 Nordeste 0 -- -- 30
2019-09-06 19:00:00 22.5 24 Nordeste 33 Nordeste 0 -- -- 27
2019-09-06 18:00:00 22.6 21 Nordeste 34 Nordeste 0 -- -- 27
2019-09-06 17:00:00 22.1 23 Nordeste 35 Norte 0 -- -- 31
2019-09-06 16:00:00 21.5 20 Nordeste 33 Nordeste 0 -- -- 34
2019-09-06 15:00:00 20.2 21 Nordeste 33 Nordeste 0 -- -- 39
2019-09-06 14:00:00 18.7 21 Nordeste 32 Nordeste 0 -- -- 44
2019-09-06 13:00:00 16.7 19 Nordeste 30 Nordeste 0 -- -- 50
2019-09-06 12:00:00 15.2 18 Nordeste 31 Nordeste 0 -- -- 58
2019-09-06 11:00:00 13 20 Nordeste 27 Nordeste 0 -- -- 68
2019-09-06 10:00:00 10.8 16 Nordeste 22 Nordeste 0 -- -- 78
2019-09-06 09:00:00 8.7 12 Nordeste 23 Nordeste 0 -- -- 86
2019-09-06 08:00:00 7.2 12 Nordeste 26 Nordeste 0 -- -- 90
2019-09-06 07:00:00 7.3 13 Nordeste 24 Nordeste 0 -- -- 89
2019-09-06 06:00:00 8.1 13 Nordeste 20 Nordeste 0 -- -- 85
2019-09-06 05:00:00 8.7 14 Nordeste 26 Nordeste 0 -- -- 81
2019-09-06 04:00:00 9.6 18 Nordeste 31 Nordeste 0 -- -- 77
2019-09-06 03:00:00 10.7 19 Nordeste 31 Nordeste 0 -- -- 74
2019-09-06 02:00:00 11.5 21 Nordeste 46 Nordeste 0 -- -- 70
2019-09-06 01:00:00 12.4 25 Nordeste 37 Nordeste 0 -- -- 67
2019-09-06 00:00:00 13.6 23 Nordeste 33 Nordeste 0 -- -- 63
2019-09-05 23:00:00 14.9 23 Nordeste 37 Nordeste 0 -- -- 58
2019-09-05 22:00:00 16.4 30 Nordeste 41 Nordeste 0 -- -- 52
2019-09-05 21:00:00 18.3 23 Nordeste 40 Nordeste 0 -- -- 41
2019-09-05 20:00:00 20.6 25 Nordeste 41 Nordeste 0 -- -- 35
2019-09-05 19:00:00 22.5 26 Nordeste 38 Nordeste 0 -- -- 32
2019-09-05 18:00:00 23.2 26 Nordeste 40 Nordeste 0 -- -- 29
2019-09-05 17:00:00 23.4 27 Nordeste 43 Nordeste 0 -- -- 27
2019-09-05 16:00:00 23 32 Nordeste 48 Nordeste 0 -- -- 33
2019-09-05 15:00:00 22.3 32 Nordeste 46 Norte 0 -- -- 37
2019-09-05 14:00:00 21.3 33 Nordeste 57 Nordeste 0 -- -- 44
2019-09-05 13:00:00 20 30 Nordeste 50 Nordeste 0 -- -- 53
2019-09-05 12:00:00 18.3 26 Nordeste 55 Nordeste 0 -- -- 59
2019-09-05 11:00:00 15.7 35 Nordeste 52 Nordeste 0 -- -- 68
2019-09-05 10:00:00 14.1 33 Nordeste 47 Nordeste 0 -- -- 74
2019-09-05 09:00:00 12 21 Nordeste 32 Nordeste 0 -- -- 79
2019-09-05 08:00:00 10.7 19 Nordeste 29 Nordeste 0 -- -- 80
2019-09-05 07:00:00 11.3 20 Nordeste 30 Nordeste 0 -- -- 80
2019-09-05 06:00:00 11.8 21 Nordeste 29 Nordeste 0 -- -- 81
2019-09-05 05:00:00 12.4 18 Nordeste 31 Nordeste 0 -- -- 78
2019-09-05 04:00:00 13.3 20 Nordeste 33 Nordeste 0 -- -- 75
2019-09-05 03:00:00 14.7 28 Nordeste 43 Nordeste 0 -- -- 70
2019-09-05 02:00:00 16.7 27 Nordeste 44 Nordeste 0 -- -- 62
2019-09-05 01:00:00 18.9 23 Nordeste 33 Nordeste 0 -- -- 52
2019-09-05 00:00:00 20 16 Nordeste 33 Nordeste 0 -- -- 47
2019-09-04 23:00:00 20.3 18 Nordeste 28 Nordeste 0 -- -- 44
2019-09-04 22:00:00 22.4 3 Nordeste 14 Nordeste 0 -- -- 39
2019-09-04 21:00:00 25.1 12 Nordeste 18 Nordeste 0 -- -- 33
2019-09-04 20:00:00 28.1 14 Nordeste 35 Nordeste 0 -- -- 28
2019-09-04 19:00:00 29.5 17 Nordeste 25 Nordeste 0 -- -- 27
2019-09-04 18:00:00 30.6 13 Nordeste 24 Nordeste 0 -- -- 24
2019-09-04 17:00:00 30.6 14 Nordeste 26 Nordeste 0 -- -- 26
2019-09-04 16:00:00 30.4 14 Nordeste 25 Nordeste 0 -- -- 25
2019-09-04 15:00:00 30.4 13 Nordeste 24 Nordeste 0 -- -- 27
2019-09-04 14:00:00 29.1 10 Sudoeste 22 Oeste 0 -- -- 26
2019-09-04 13:00:00 28.6 8 Sudoeste 15 Sudoeste 0 -- -- 27
2019-09-04 12:00:00 26.9 3 Sudoeste 8 Oeste 0 -- -- 33
2019-09-04 11:00:00 22.9 3 Norte 6 Norte 0 -- -- 47
2019-09-04 10:00:00 17.7 3 Norte 7 Oeste 0 -- -- 63
2019-09-04 09:00:00 12.3 6 Oeste 10 Sudoeste 0 -- -- 74
2019-09-04 08:00:00 9.8 8 Oeste 10 Sudoeste 0 -- -- 82
2019-09-04 07:00:00 9.3 8 Sudoeste 9 Sudoeste 0 -- -- 83
2019-09-04 06:00:00 10.7 3 Noroeste 7 Oeste 0 -- -- 79
2019-09-04 05:00:00 10.5 5 Oeste 6 Oeste 0 -- -- 79
2019-09-04 04:00:00 11.1 4 Oeste 8 Oeste 0 -- -- 75
2019-09-04 03:00:00 12.3 6 Noroeste 9 Oeste 0 -- -- 73
2019-09-04 02:00:00 13.7 5 Oeste 9 Oeste 0 -- -- 65
2019-09-04 01:00:00 14.2 8 Oeste 9 Noroeste 0 -- -- 68
2019-09-04 00:00:00 16.6 4 Sudoeste 10 Noroeste 0 -- -- 55
2019-09-03 23:00:00 18.2 9 Oeste 10 Oeste 0 -- -- 49
2019-09-03 22:00:00 22.2 4 Noroeste 10 Este 0 -- -- 40
2019-09-03 21:00:00 24.8 7 Nordeste 14 Norte 0 -- -- 33
2019-09-03 20:00:00 27.9 9 Norte 17 Norte 0 -- -- 29
2019-09-03 19:00:00 28.7 13 Nordeste 25 Nordeste 0 -- -- 32
2019-09-03 18:00:00 29.2 12 Nordeste 24 Nordeste 0 -- -- 32
2019-09-03 17:00:00 29.3 14 Nordeste 30 Nordeste 0 -- -- 33
2019-09-03 16:00:00 28.4 12 Nordeste 29 Nordeste 0 -- -- 34
2019-09-03 15:00:00 26.9 14 Nordeste 22 Nordeste 0 -- -- 35
2019-09-03 14:00:00 24.6 15 Nordeste 28 Nordeste 0 -- -- 40
2019-09-03 13:00:00 22 14 Nordeste 23 Nordeste 0 -- -- 45
2019-09-03 12:00:00 18.9 13 Nordeste 22 Nordeste 0 -- -- 55
2019-09-03 11:00:00 16.4 12 Nordeste 18 Nordeste 0 -- -- 63
2019-09-03 10:00:00 13.7 12 Nordeste 24 Nordeste 0 -- -- 71
2019-09-03 09:00:00 12 13 Nordeste 18 Nordeste 0 -- -- 76
2019-09-03 08:00:00 10.5 9 Nordeste 14 Nordeste 0 -- -- 83
2019-09-03 07:00:00 11 10 Nordeste 13 Nordeste 0 -- -- 80
2019-09-03 06:00:00 11.7 6 Nordeste 10 Nordeste 0 -- -- 75
2019-09-03 05:00:00 12.5 7 Nordeste 17 Nordeste 0 -- -- 73
2019-09-03 04:00:00 13.5 13 Nordeste 22 Nordeste 0 -- -- 69
2019-09-03 03:00:00 14.7 13 Nordeste 22 Nordeste 0 -- -- 62
2019-09-03 02:00:00 16 16 Nordeste 29 Nordeste 0 -- -- 56
2019-09-03 01:00:00 18 19 Nordeste 37 Nordeste 0 -- -- 49
2019-09-03 00:00:00 19.2 22 Nordeste 35 Nordeste 0 -- -- 47
2019-09-02 23:00:00 20 15 Nordeste 24 Nordeste 0 -- -- 46
2019-09-02 22:00:00 21.7 18 Nordeste 30 Nordeste 0 -- -- 42
2019-09-02 21:00:00 24 20 Nordeste 36 Nordeste 0 -- -- 39
2019-09-02 20:00:00 26.4 22 Nordeste 35 Nordeste 0 -- -- 38
2019-09-02 19:00:00 27.7 19 Nordeste 32 Nordeste 0 -- -- 36
2019-09-02 18:00:00 28 20 Nordeste 33 Nordeste 0 -- -- 37
2019-09-02 17:00:00 28 21 Nordeste 33 Nordeste 0 -- -- 38
2019-09-02 16:00:00 27 22 Nordeste 32 Norte 0 -- -- 42
2019-09-02 15:00:00 25.9 19 Nordeste 30 Nordeste 0 -- -- 45
2019-09-02 14:00:00 23.8 22 Nordeste 34 Nordeste 0 -- -- 49
2019-09-02 13:00:00 21.1 23 Nordeste 36 Nordeste 0 -- -- 55
2019-09-02 12:00:00 18.6 23 Nordeste 32 Norte 0 -- -- 62
2019-09-02 11:00:00 16.3 19 Nordeste 34 Nordeste 0 -- -- 70
2019-09-02 10:00:00 14.5 19 Nordeste 31 Nordeste 0 -- -- 77
2019-09-02 09:00:00 12.5 19 Nordeste 28 Nordeste 0 -- -- 86
2019-09-02 08:00:00 12.2 19 Nordeste 29 Nordeste 0 -- -- 89
2019-09-02 07:00:00 12.9 17 Nordeste 26 Nordeste 0 -- -- 88
2019-09-02 06:00:00 13.4 14 Nordeste 25 Nordeste 0 -- -- 86
2019-09-02 05:00:00 14 15 Nordeste 30 Nordeste 0 -- -- 85
2019-09-02 04:00:00 14.7 21 Nordeste 33 Nordeste 0 -- -- 82
2019-09-02 03:00:00 16 19 Nordeste 30 Nordeste 0 -- -- 76
2019-09-02 02:00:00 17.1 18 Nordeste 45 Nordeste 0 -- -- 68
2019-09-02 01:00:00 18.2 25 Nordeste 40 Nordeste 0 -- -- 63
2019-09-02 00:00:00 19.4 25 Nordeste 40 Nordeste 0 -- -- 63
2019-09-01 23:00:00 20 6 Norte 24 Nordeste 0 -- -- 64
2019-09-01 22:00:00 22.9 2 Norte 9 Este 0 -- -- 54
2019-09-01 21:00:00 24.5 7 Este 12 Nordeste 0 -- -- 50
2019-09-01 20:00:00 26.4 8 Nordeste 21 Nordeste 0 -- -- 45
2019-09-01 19:00:00 26 15 Nordeste 19 Nordeste 0 -- -- 46
2019-09-01 18:00:00 26.8 5 Nordeste 21 Nordeste 0 -- -- 43
2019-09-01 17:00:00 26.6 14 Nordeste 27 Noroeste 0 -- -- 45
2019-09-01 16:00:00 27.4 9 Norte 30 Nordeste 0 -- -- 45
2019-09-01 15:00:00 27.2 21 Nordeste 27 Nordeste 0 -- -- 50
2019-09-01 14:00:00 26.6 12 Nordeste 23 Nordeste 0 -- -- 50
2019-09-01 13:00:00 26.3 13 Nordeste 21 Nordeste 0 -- -- 49
2019-09-01 12:00:00 25.2 5 Sudeste 17 Este 0 -- -- 51
2019-09-01 11:00:00 23.9 8 Este 13 Este 0 -- -- 54
2019-09-01 10:00:00 20.3 5 Nordeste 10 Norte 0 -- -- 64
2019-09-01 09:00:00 14.5 0 Calma 9 Noroeste 0 -- -- 87
2019-09-01 08:00:00 12.5 6 Noroeste 10 Noroeste 0 -- -- 89
2019-09-01 07:00:00 12.9 7 Sudoeste 10 Oeste 0 -- -- 87
2019-09-01 06:00:00 13.2 7 Oeste 12 Oeste 0 -- -- 87
2019-09-01 05:00:00 14.8 6 Oeste 9 Oeste 0 -- -- 81
2019-09-01 04:00:00 15.9 3 Oeste 8 Oeste 0 -- -- 76
2019-09-01 03:00:00 17.3 4 Sudoeste 10 Oeste 0 -- -- 70
2019-09-01 02:00:00 18.9 5 Sudoeste 9 Sudoeste 0 -- -- 64
2019-09-01 01:00:00 20.2 5 Sur 10 Sudoeste 0 -- -- 56
2019-09-01 00:00:00 21.5 5 Sudoeste 9 Oeste 0 -- -- 50
2019-08-31 23:00:00 22.6 6 Oeste 14 Oeste 0 -- -- 46
2019-08-31 22:00:00 24.6 9 Oeste 16 Oeste 0 -- -- 41
2019-08-31 21:00:00 27.4 11 Sudoeste 29 Sudoeste 0 -- -- 35
2019-08-31 20:00:00 30 15 Sudoeste 26 Sudoeste 0 -- -- 30
2019-08-31 19:00:00 29.8 12 Oeste 26 Oeste 0 -- -- 30
2019-08-31 18:00:00 30.7 13 Sudoeste 27 Sudoeste 0 -- -- 27
2019-08-31 17:00:00 31.9 17 Sudoeste 33 Sudoeste 0 -- -- 26
2019-08-31 16:00:00 31.9 18 Sudoeste 31 Sudoeste 0 -- -- 27
2019-08-31 15:00:00 31.4 15 Oeste 30 Sudoeste 0 -- -- 27
2019-08-31 14:00:00 30.8 14 Sudoeste 26 Sudoeste 0 -- -- 30
2019-08-31 13:00:00 29.2 6 Sur 14 Noroeste 0 -- -- 34
2019-08-31 12:00:00 27.5 6 Nordeste 12 Nordeste 0 -- -- 39
2019-08-31 11:00:00 24.9 5 Este 8 Este 0 -- -- 45
2019-08-31 10:00:00 19.3 2 Noroeste 8 Oeste 0 -- -- 62
2019-08-31 09:00:00 14.4 5 Oeste 8 Oeste 0 -- -- 81
2019-08-31 08:00:00 13.2 2 Noroeste 10 Oeste 0 -- -- 83
2019-08-31 07:00:00 13.8 4 Oeste 10 Sudoeste 0 -- -- 78
2019-08-31 06:00:00 14.4 7 Oeste 13 Oeste 0 -- -- 76
2019-08-31 05:00:00 15.4 8 Oeste 12 Oeste 0 -- -- 75
2019-08-31 04:00:00 16.9 4 Norte 17 Sur 0 -- -- 65
2019-08-31 03:00:00 18.4 5 Sudoeste 14 Oeste 0 -- -- 59
2019-08-31 02:00:00 17.6 8 Oeste 14 Oeste 0 -- -- 62
2019-08-31 01:00:00 17.9 2 Oeste 10 Oeste 0 -- -- 63
2019-08-31 00:00:00 20 6 Oeste 12 Noroeste 0 -- -- 56
2019-08-30 23:00:00 22.1 6 Sudoeste 22 Sudoeste 0 -- -- 47
2019-08-30 22:00:00 22.4 6 Sudoeste 13 Noroeste 0 -- -- 48
2019-08-30 21:00:00 23.3 9 Oeste 17 Noroeste 0 -- -- 45
2019-08-30 20:00:00 24.2 12 Nordeste 30 Noroeste 0 -- -- 43
2019-08-30 19:00:00 25.9 19 Noroeste 33 Sudeste 0 -- -- 39
2019-08-30 18:00:00 29.8 22 Sudeste 36 Sudeste 0 -- -- 31
2019-08-30 17:00:00 28.4 17 Sudeste 38 Sudeste 0 -- -- 38
2019-08-30 16:00:00 27.6 28 Sudeste 40 Este 0 -- -- 37
2019-08-30 15:00:00 32.1 19 Sudoeste 34 Sudoeste 0 -- -- 27
2019-08-30 14:00:00 31.8 12 Sudoeste 23 Sudoeste 0 -- -- 28
2019-08-30 13:00:00 30.5 9 Sudoeste 21 Sudoeste 0 -- -- 30
2019-08-30 12:00:00 29.4 12 Sudoeste 17 Sudoeste 0 -- -- 34
2019-08-30 11:00:00 24.9 5 Sudoeste 8 Sudoeste 0 -- -- 48
2019-08-30 10:00:00 18.6 4 Oeste 6 Oeste 0 -- -- 67
2019-08-30 09:00:00 14.2 4 Oeste 9 Noroeste 0 -- -- 83
2019-08-30 08:00:00 12.8 5 Oeste 9 Sudoeste 0 -- -- 86
2019-08-30 07:00:00 12.8 5 Oeste 10 Sudoeste 0 -- -- 86
2019-08-30 06:00:00 13.3 5 Oeste 9 Oeste 0 -- -- 82
2019-08-30 05:00:00 13.7 8 Oeste 11 Oeste 0 -- -- 80
2019-08-30 04:00:00 14.9 9 Oeste 12 Oeste 0 -- -- 74
2019-08-30 03:00:00 16.6 5 Oeste 10 Oeste 0 -- -- 68
2019-08-30 02:00:00 17.8 6 Sudoeste 12 Oeste 0 -- -- 64
2019-08-30 01:00:00 18.5 7 Sudoeste 13 Oeste 0 -- -- 62
2019-08-30 00:00:00 20.1 8 Sudoeste 10 Sudoeste 0 -- -- 56
2019-08-29 23:00:00 22.4 4 Sudoeste 10 Oeste 0 -- -- 48
2019-08-29 22:00:00 24.1 7 Oeste 16 Sudoeste 0 -- -- 43
2019-08-29 21:00:00 27.1 9 Sudoeste 21 Sudoeste 0 -- -- 36
2019-08-29 20:00:00 29.9 14 Sudoeste 26 Sudoeste 0 -- -- 31
2019-08-29 19:00:00 30.9 14 Oeste 34 Sudoeste 0 -- -- 29
2019-08-29 18:00:00 30.7 15 Sudoeste 33 Sudoeste 0 -- -- 28
2019-08-29 17:00:00 30.6 22 Oeste 34 Oeste 0 -- -- 30
2019-08-29 16:00:00 31.2 17 Sudoeste 33 Sudoeste 0 -- -- 29
2019-08-29 15:00:00 30.9 21 Sudoeste 36 Sudoeste 0 -- -- 31
2019-08-29 14:00:00 29.9 20 Sudoeste 41 Oeste 0 -- -- 32
2019-08-29 13:00:00 29.2 20 Sudoeste 33 Sudoeste 0 -- -- 33
2019-08-29 12:00:00 27.9 5 Sudoeste 11 Este 0 -- -- 39
2019-08-29 11:00:00 24.2 3 Sudeste 7 Nordeste 0 -- -- 56
2019-08-29 10:00:00 19 2 Oeste 6 Noroeste 0 -- -- 73
2019-08-29 09:00:00 14.8 5 Noroeste 8 Oeste 0 -- -- 88
2019-08-29 08:00:00 13.4 5 Oeste 12 Oeste 0 -- -- 91
2019-08-29 07:00:00 13.7 8 Oeste 10 Sudoeste 0 -- -- 87
2019-08-29 06:00:00 14 6 Sudoeste 9 Oeste 0 -- -- 86
2019-08-29 05:00:00 15.1 8 Sudoeste 12 Sudoeste 0 -- -- 83
2019-08-29 04:00:00 15.8 7 Oeste 8 Oeste 0 -- -- 78
2019-08-29 03:00:00 16.6 5 Sudoeste 11 Oeste 0 -- -- 75
2019-08-29 02:00:00 17.8 4 Oeste 7 Oeste 0 -- -- 69
2019-08-29 01:00:00 19.4 2 Sudoeste 8 Sur 0 -- -- 62
2019-08-29 00:00:00 19.8 6 Sudoeste 10 Sudoeste 0 -- -- 60
2019-08-28 23:00:00 21.2 9 Sudoeste 11 Sudoeste 0 -- -- 55
2019-08-28 22:00:00 23 8 Sudoeste 13 Sudoeste 0 -- -- 49
2019-08-28 21:00:00 25.6 8 Sudoeste 16 Sudoeste 0 -- -- 42
2019-08-28 20:00:00 28.6 8 Sudoeste 22 Sudoeste 0 -- -- 35
2019-08-28 19:00:00 29.3 12 Sudoeste 21 Sudoeste 0 -- -- 34
2019-08-28 18:00:00 29.5 6 Nordeste 22 Sur 0 -- -- 32
2019-08-28 17:00:00 29.3 15 Sudoeste 27 Sudoeste 0 -- -- 33
2019-08-28 16:00:00 29.1 9 Sudoeste 22 Sudoeste 0 -- -- 34
2019-08-28 15:00:00 28 14 Oeste 26 Oeste 0 -- -- 35
2019-08-28 14:00:00 27.9 17 Sudoeste 26 Sudoeste 0 -- -- 38
2019-08-28 13:00:00 26.6 10 Sudoeste 21 Oeste 0 -- -- 42
2019-08-28 12:00:00 25.9 6 Sur 16 Sudoeste 0 -- -- 42
2019-08-28 11:00:00 22.4 3 Noroeste 6 Oeste 0 -- -- 58
2019-08-28 10:00:00 17.7 3 Oeste 5 Oeste 0 -- -- 74
2019-08-28 09:00:00 13.9 5 Oeste 9 Oeste 0 -- -- 90
2019-08-28 08:00:00 12.4 5 Noroeste 8 Oeste 0 -- -- 93
2019-08-28 07:00:00 12.6 6 Oeste 8 Oeste 0 -- -- 91
2019-08-28 06:00:00 13.5 7 Oeste 11 Sudoeste 0 -- -- 89
2019-08-28 05:00:00 14.3 9 Oeste 12 Oeste 0 -- -- 86
2019-08-28 04:00:00 14.7 8 Sudoeste 15 Sudoeste 0 -- -- 84
2019-08-28 03:00:00 14.5 9 Oeste 18 Oeste 0 -- -- 86
2019-08-28 02:00:00 14.7 6 Oeste 8 Oeste 0 -- -- 85
2019-08-28 01:00:00 15.7 3 Noroeste 8 Oeste 0 -- -- 80
2019-08-28 00:00:00 16.4 5 Oeste 8 Oeste 0 -- -- 78
2019-08-27 23:00:00 17.9 4 Oeste 10 Oeste 0 -- -- 71
2019-08-27 22:00:00 20.3 2 Sudoeste 12 Nordeste 0 -- -- 62
2019-08-27 21:00:00 22.4 9 Nordeste 14 Nordeste 0 -- -- 54
2019-08-27 20:00:00 24.8 12 Nordeste 19 Nordeste 0 -- -- 47
2019-08-27 19:00:00 25.8 11 Nordeste 20 Nordeste 0 -- -- 45
2019-08-27 18:00:00 25.2 13 Este 26 Sudeste 0 -- -- 43
2019-08-27 17:00:00 26.7 10 Noroeste 20 Norte 0 -- -- 40
2019-08-27 16:00:00 25.9 8 Norte 22 Norte 0 -- -- 42
2019-08-27 15:00:00 24 9 Noroeste 19 Noroeste 0 -- -- 46
2019-08-27 14:00:00 24.6 11 Norte 23 Norte 0 -- -- 46
2019-08-27 13:00:00 22.7 8 Oeste 19 Oeste 0 -- -- 54
2019-08-27 12:00:00 21.5 10 Oeste 19 Oeste 0 -- -- 60
2019-08-27 11:00:00 19.7 6 Sudoeste 11 Sudoeste 0 -- -- 72
2019-08-27 10:00:00 16.7 6 Sudoeste 9 Sudoeste 0 -- -- 79
2019-08-27 09:00:00 13.7 5 Sudoeste 9 Sudoeste 0 -- -- 88
2019-08-27 08:00:00 11.6 5 Sudoeste 10 Noroeste 0 -- -- 93
2019-08-27 07:00:00 11.7 9 Oeste 12 Oeste 0 -- -- 93
2019-08-27 06:00:00 12.6 3 Sudoeste 10 Oeste 0 -- -- 91
2019-08-27 05:00:00 13 8 Oeste 10 Sudoeste 0 -- -- 90
2019-08-27 04:00:00 13.4 4 Sur 12 Sudoeste 0 -- -- 88
2019-08-27 03:00:00 13.6 7 Sudoeste 13 Oeste 0 -- -- 87
2019-08-27 02:00:00 13.6 9 Oeste 14 Oeste 0 -- -- 89
2019-08-27 01:00:00 13.7 6 Oeste 14 Oeste 0 -- -- 88
2019-08-27 00:00:00 14.8 3 Oeste 10 Sudoeste 0 -- -- 83
2019-08-26 23:00:00 15.8 5 Sudoeste 13 Oeste 0 -- -- 79
2019-08-26 22:00:00 17.3 6 Oeste 12 Sur 0 -- -- 73
2019-08-26 21:00:00 18.4 6 Sur 26 Noroeste 0 -- -- 65
2019-08-26 20:00:00 18.9 17 Noroeste 42 Oeste 0 -- -- 57
2019-08-26 19:00:00 18.5 13 Sudoeste 52 Sudeste 0 -- -- 60
2019-08-26 18:00:00 21.2 27 Sur 40 Sudeste 0 -- -- 61
2019-08-26 17:00:00 24.6 12 Nordeste 21 Norte 0 -- -- 50
2019-08-26 16:00:00 22.8 12 Nordeste 18 Norte 0 -- -- 52
2019-08-26 15:00:00 21 5 Norte 10 Norte 0 -- -- 70
2019-08-26 14:00:00 18.9 5 Noroeste 9 Noroeste 0 -- -- 79
2019-08-26 13:00:00 17.5 2 Sudoeste 22 Nordeste 0 -- -- 83
2019-08-26 12:00:00 16 11 Este 19 Este 0.2 -- -- 91
2019-08-26 11:00:00 15.3 7 Oeste 22 Sudoeste 0 -- -- 90
2019-08-26 10:00:00 14.8 6 Noroeste 12 Este 0 -- -- 90
2019-08-26 09:00:00 13.1 8 Nordeste 18 Este 0.2 -- -- 95
2019-08-26 08:00:00 13.3 14 Nordeste 27 Nordeste 1.2 -- -- 93
2019-08-26 07:00:00 14 10 Norte 45 Nordeste 0.2 -- -- 89
2019-08-26 06:00:00 14.9 27 Nordeste 37 Nordeste 1.8 -- -- 86
2019-08-26 05:00:00 15.9 15 Nordeste 28 Nordeste 5.4 -- -- 93
2019-08-26 04:00:00 16.1 22 Nordeste 35 Nordeste 0 -- -- 89
2019-08-26 03:00:00 16.1 23 Nordeste 33 Nordeste 0 -- -- 90
2019-08-26 02:00:00 16.1 22 Nordeste 35 Nordeste 0.4 -- -- 92
2019-08-26 01:00:00 16.3 18 Nordeste 28 Nordeste 2.4 -- -- 91
2019-08-26 00:00:00 16.7 11 Este 34 Este 0 -- -- 87
2019-08-25 23:00:00 16.6 19 Este 31 Este 0 -- -- 85
2019-08-25 22:00:00 17 9 Nordeste 18 Nordeste 0 -- -- 85
2019-08-25 21:00:00 18 6 Oeste 21 Noroeste 0 -- -- 79
2019-08-25 20:00:00 18.9 18 Noroeste 35 Noroeste 0.8 -- -- 77
2019-08-25 19:00:00 19.2 14 Norte 25 Sudoeste 6.6 -- -- 76
2019-08-25 18:00:00 24.5 17 Nordeste 24 Norte 0.8 -- -- 54
2019-08-25 17:00:00 26.4 17 Noroeste 41 Sudoeste 0 -- -- 36
2019-08-25 16:00:00 30.1 11 Sudoeste 30 Sudoeste 0 -- -- 27
2019-08-25 15:00:00 30.8 15 Oeste 27 Sudoeste 0 -- -- 26
2019-08-25 14:00:00 28.8 13 Sudoeste 28 Oeste 0 -- -- 30
2019-08-25 13:00:00 28.9 17 Sudoeste 27 Sudoeste 0 -- -- 31
2019-08-25 12:00:00 27.7 11 Sudoeste 18 Oeste 0 -- -- 31
2019-08-25 11:00:00 23.3 3 Este 6 Nordeste 0 -- -- 45
2019-08-25 10:00:00 19.9 2 Noroeste 8 Oeste 0 -- -- 61
2019-08-25 09:00:00 16.5 2 Oeste 11 Sur 0 -- -- 68
2019-08-25 08:00:00 16.4 4 Oeste 6 Sur 0 -- -- 65
2019-08-25 07:00:00 16.7 4 Noroeste 10 Oeste 0 -- -- 65
2019-08-25 06:00:00 18.3 4 Sudoeste 10 Sur 0 -- -- 58
2019-08-25 05:00:00 18.6 4 Oeste 6 Oeste 0 -- -- 57
2019-08-25 04:00:00 20.4 3 Sudoeste 13 Sudoeste 0 -- -- 50
2019-08-25 03:00:00 20.8 8 Sudoeste 13 Sudoeste 0 -- -- 46
2019-08-25 02:00:00 22.1 5 Sudoeste 14 Oeste 0 -- -- 43
2019-08-25 01:00:00 21.5 7 Sudoeste 16 Oeste 0 -- -- 42
2019-08-25 00:00:00 22.5 6 Sudoeste 13 Noroeste 0 -- -- 36
2019-08-24 23:00:00 24.2 5 Oeste 9 Sudoeste 0 -- -- 33
2019-08-24 22:00:00 26.4 2 Sudoeste 14 Sudoeste 0 -- -- 30
2019-08-24 21:00:00 28.7 9 Sudoeste 15 Oeste 0 -- -- 27
2019-08-24 20:00:00 30.5 5 Sudoeste 15 Sudoeste 0 -- -- 27
2019-08-24 19:00:00 31.4 5 Nordeste 15 Nordeste 0 -- -- 26
2019-08-24 18:00:00 31.7 3 Noroeste 14 Oeste 0 -- -- 23
2019-08-24 17:00:00 32.1 3 Norte 15 Noroeste 0 -- -- 24
2019-08-24 16:00:00 31.9 7 Noroeste 29 Oeste 0 -- -- 24
2019-08-24 15:00:00 31.3 8 Norte 15 Noroeste 0 -- -- 24
2019-08-24 14:00:00 31.9 9 Nordeste 24 Noroeste 0 -- -- 23
2019-08-24 13:00:00 31.5 9 Noroeste 26 Sudoeste 0 -- -- 24
2019-08-24 12:00:00 29.9 12 Sudoeste 23 Sudoeste 0 -- -- 27
2019-08-24 11:00:00 26.7 5 Sudoeste 13 Sudoeste 0 -- -- 36
2019-08-24 10:00:00 21.6 4 Norte 8 Sudoeste 0 -- -- 47
2019-08-24 09:00:00 15.7 3 Oeste 13 Sudoeste 0 -- -- 63
2019-08-24 08:00:00 12.6 8 Oeste 10 Oeste 0 -- -- 69
2019-08-24 07:00:00 12.7 8 Oeste 10 Nordeste 0 -- -- 70
2019-08-24 06:00:00 14.1 5 Oeste 12 Sudoeste 0 -- -- 62
2019-08-24 05:00:00 15.6 8 Sudoeste 10 Sudoeste 0 -- -- 57
2019-08-24 04:00:00 15.5 6 Oeste 13 Sudoeste -- -- -- 57
2019-08-24 03:00:00 16.2 10 Sudoeste 15 Sudoeste 0 -- -- 53
2019-08-24 02:00:00 15.7 6 Oeste 10 Oeste 0 -- -- 54
2019-08-24 01:00:00 16.9 5 Oeste 9 Oeste 0 -- -- 49
2019-08-24 00:00:00 18.1 6 Oeste 11 Sudoeste 0 -- -- 48
2019-08-23 23:00:00 21.3 4 Noroeste 13 Oeste 0 -- -- 38
2019-08-23 22:00:00 23.7 7 Oeste 13 Nordeste 0 -- -- 36
2019-08-23 21:00:00 27.3 8 Nordeste 17 Nordeste 0 -- -- 29
2019-08-23 20:00:00 30.3 12 Nordeste 19 Nordeste 0 -- -- 24
2019-08-23 19:00:00 31.5 9 Este 25 Nordeste 0 -- -- 23
2019-08-23 18:00:00 32.1 8 Nordeste 20 Nordeste 0 -- -- 22
2019-08-23 17:00:00 32.3 11 Este 23 Norte 0 -- -- 22
2019-08-23 16:00:00 31.9 11 Nordeste 22 Nordeste 0 -- -- 22
2019-08-23 15:00:00 31.7 10 Este 24 Nordeste 0 -- -- 22
2019-08-23 14:00:00 30.9 13 Nordeste 19 Nordeste 0 -- -- 24
2019-08-23 13:00:00 29.7 5 Noroeste 13 Sudoeste 0 -- -- 24
2019-08-23 12:00:00 26.9 5 Este 9 Este 0 -- -- 28
2019-08-23 11:00:00 21.8 5 Nordeste 13 Nordeste 0 -- -- 30
2019-08-23 10:00:00 18.4 7 Nordeste 10 Nordeste 0 -- -- 36
2019-08-23 09:00:00 13.1 0 Calma 10 Oeste 0 -- -- 55
2019-08-23 08:00:00 10.3 5 Nordeste 11 Nordeste 0 -- -- 62
2019-08-23 07:00:00 9.7 5 Norte 9 Norte 0 -- -- 59
2019-08-23 06:00:00 10.7 3 Noroeste 8 Noroeste 0 -- -- 56
2019-08-23 05:00:00 11 3 Oeste 8 Oeste 0 -- -- 56
2019-08-23 04:00:00 12.4 3 Oeste 9 Sudoeste 0 -- -- 51
2019-08-23 03:00:00 12.9 3 Noroeste 13 Oeste 0 -- -- 51
2019-08-23 02:00:00 14.1 7 Noroeste 13 Oeste 0 -- -- 45
2019-08-23 01:00:00 15.9 6 Noroeste 12 Oeste 0 -- -- 42
2019-08-23 00:00:00 16.9 4 Noroeste 7 Oeste 0 -- -- 42
2019-08-22 23:00:00 20.9 3 Este 15 Nordeste 0 -- -- 36
2019-08-22 22:00:00 21.9 12 Este 15 Nordeste 0 -- -- 38
2019-08-22 21:00:00 25.7 12 Nordeste 20 Nordeste 0 -- -- 28
2019-08-22 20:00:00 28.1 15 Nordeste 25 Nordeste 0 -- -- 27
2019-08-22 19:00:00 29.5 16 Nordeste 26 Nordeste 0 -- -- 25
2019-08-22 18:00:00 29.9 18 Nordeste 29 Nordeste 0 -- -- 24
2019-08-22 17:00:00 29.5 19 Norte 32 Norte 0 -- -- 26
2019-08-22 16:00:00 29.4 18 Nordeste 35 Nordeste 0 -- -- 26
2019-08-22 15:00:00 29 21 Nordeste 35 Nordeste 0 -- -- 28
2019-08-22 14:00:00 28.4 22 Nordeste 35 Nordeste 0 -- -- 30
2019-08-22 13:00:00 25.9 20 Nordeste 29 Nordeste 0 -- -- 46
2019-08-22 12:00:00 22.4 14 Nordeste 21 Nordeste 0 -- -- 58
2019-08-22 11:00:00 19.7 9 Nordeste 14 Norte 0 -- -- 65
2019-08-22 10:00:00 16.8 10 Nordeste 17 Nordeste 0 -- -- 71
2019-08-22 09:00:00 14 5 Nordeste 9 Nordeste 0 -- -- 77
2019-08-22 08:00:00 10.9 2 Noroeste 8 Nordeste 0 -- -- 79
2019-08-22 07:00:00 11.6 4 Nordeste 9 Nordeste 0 -- -- 75
2019-08-22 06:00:00 11.6 0 Calma 8 Norte 0 -- -- 76
2019-08-22 05:00:00 12.2 5 Oeste 10 Oeste 0 -- -- 71
2019-08-22 04:00:00 13.1 4 Noroeste 9 Norte 0 -- -- 69
2019-08-22 03:00:00 13.1 5 Sudoeste 10 Oeste 0 -- -- 69
2019-08-22 02:00:00 14.2 7 Oeste 12 Norte 0 -- -- 67
2019-08-22 01:00:00 15.4 3 Oeste 12 Oeste 0 -- -- 61
2019-08-22 00:00:00 17.2 3 Noroeste 8 Oeste 0 -- -- 52
2019-08-21 23:00:00 19.8 0 Calma 12 Este 0 -- -- 46
2019-08-21 22:00:00 22.4 6 Nordeste 10 Este 0 -- -- 43
2019-08-21 21:00:00 25.1 6 Norte 15 Nordeste 0 -- -- 34
2019-08-21 20:00:00 27.4 13 Nordeste 21 Nordeste 0 -- -- 30
2019-08-21 19:00:00 27.9 15 Nordeste 32 Nordeste 0 -- -- 34
2019-08-21 18:00:00 28.7 19 Nordeste 27 Nordeste 0 -- -- 35
2019-08-21 17:00:00 28.7 13 Norte 23 Norte 0 -- -- 36
2019-08-21 16:00:00 28.7 7 Norte 24 Este 0 -- -- 36
2019-08-21 15:00:00 27.2 10 Norte 23 Nordeste 0 -- -- 41
2019-08-21 14:00:00 25.9 7 Nordeste 18 Nordeste 0 -- -- 46
2019-08-21 13:00:00 23.4 9 Nordeste 18 Nordeste 0 -- -- 52
2019-08-21 12:00:00 20.2 10 Nordeste 17 Nordeste 0 -- -- 60
2019-08-21 11:00:00 17.4 8 Nordeste 14 Este 0 -- -- 66
2019-08-21 10:00:00 15.2 10 Nordeste 18 Nordeste 0 -- -- 72
2019-08-21 09:00:00 13.6 5 Nordeste 10 Nordeste 0 -- -- 80
2019-08-21 08:00:00 12 3 Nordeste 8 Norte 0 -- -- 84
2019-08-21 07:00:00 12.2 5 Norte 10 Norte 0 -- -- 82
2019-08-21 06:00:00 12.7 7 Norte 10 Norte 0 -- -- 80
2019-08-21 05:00:00 13.4 6 Nordeste 17 Nordeste 0 -- -- 75
2019-08-21 04:00:00 14 12 Nordeste 18 Nordeste 0 -- -- 73
2019-08-21 03:00:00 14.8 13 Nordeste 20 Nordeste 0 -- -- 69
2019-08-21 02:00:00 15.1 14 Nordeste 21 Nordeste 0 -- -- 68
2019-08-21 01:00:00 16.6 13 Nordeste 27 Nordeste 0 -- -- 61
2019-08-21 00:00:00 18.2 21 Nordeste 29 Nordeste 0 -- -- 55